Terminal Aerodrome Forecast
Issued by NWS

Home | Current Version | Previous Version | Text Only | Print | Product List | Glossary On
Versions: 1 2 3 4 5 6 7 8 9 10 11 12 13 14
596
FTUS43 KAPX 211521 AAB
TAFTVC
TAF AMD
KTVC 211521Z 2115/2212 25006KT 4SM BR SCT012 SCT250
     FM211600 26006KT 5SM BR BKN015
     FM211800 27006KT P6SM SCT020
     FM212000 26005KT P6SM FEW150
     FM220100 VRB03KT 4SM BR FEW200
     FM221100 21007KT 5SM BR FEW150=

USA.gov is the U.S. government's official web portal to all federal, state and local government web resources and services.